createdAt,value
2016-12-22T00:00:07.935Z,-2.9
2016-12-22T00:00:26.578Z,-2.8
2016-12-22T00:00:45.234Z,-2.8
2016-12-22T00:01:03.879Z,-2.8
2016-12-22T00:01:22.519Z,-2.8
2016-12-22T00:01:41.158Z,-2.8
2016-12-22T00:01:59.809Z,-2.8
2016-12-22T00:02:18.479Z,-2.8
2016-12-22T00:02:37.123Z,-2.8
2016-12-22T00:02:55.765Z,-2.8
2016-12-22T00:03:14.406Z,-2.7
2016-12-22T00:03:33.048Z,-2.7
2016-12-22T00:03:51.692Z,-2.7
2016-12-22T00:04:10.335Z,-2.7
2016-12-22T00:04:28.976Z,-2.8
2016-12-22T00:04:47.616Z,-2.8
2016-12-22T00:05:06.286Z,-2.8
2016-12-22T00:05:24.956Z,-2.8
2016-12-22T00:05:43.605Z,-2.8
2016-12-22T00:06:02.247Z,-2.8
2016-12-22T00:06:20.890Z,-2.8
2016-12-22T00:06:39.528Z,-2.8
2016-12-22T00:06:58.166Z,-2.8
2016-12-22T00:07:16.806Z,-2.8
2016-12-22T00:07:35.438Z,-2.8
2016-12-22T00:07:54.083Z,-2.8
2016-12-22T00:08:12.723Z,-2.8
2016-12-22T00:08:31.368Z,-2.9
2016-12-22T00:08:50.043Z,-2.9
2016-12-22T00:09:08.680Z,-2.9
2016-12-22T00:09:27.326Z,-2.9
2016-12-22T00:09:45.979Z,-2.9
2016-12-22T00:10:04.621Z,-2.9
2016-12-22T00:10:23.265Z,-2.9
2016-12-22T00:10:41.901Z,-2.9
2016-12-22T00:11:00.553Z,-3
2016-12-22T00:11:19.200Z,-3
2016-12-22T00:11:37.839Z,-3
2016-12-22T00:11:56.478Z,-3
2016-12-22T00:12:15.145Z,-3
2016-12-22T00:12:33.785Z,-3
2016-12-22T00:12:52.428Z,-3
2016-12-22T00:13:11.067Z,-3
2016-12-22T00:13:29.705Z,-3
2016-12-22T00:13:48.393Z,-3
2016-12-22T00:14:07.035Z,-3
2016-12-22T00:14:25.681Z,-3
2016-12-22T00:14:44.318Z,-2.9
2016-12-22T00:15:02.963Z,-2.9
2016-12-22T00:15:21.606Z,-2.8
2016-12-22T00:15:40.279Z,-2.7
2016-12-22T00:15:58.926Z,-2.7
2016-12-22T00:16:17.563Z,-2.6
2016-12-22T00:16:36.211Z,-2.6
2016-12-22T00:16:54.870Z,-2.6
2016-12-22T00:17:13.513Z,-2.6
2016-12-22T00:17:32.156Z,-2.6
2016-12-22T00:17:50.798Z,-2.7
2016-12-22T00:18:09.445Z,-2.6
2016-12-22T00:18:28.107Z,-2.6
2016-12-22T00:18:46.752Z,-2.6
2016-12-22T00:19:05.395Z,-2.6
2016-12-22T00:19:24.031Z,-2.6
2016-12-22T00:19:42.672Z,-2.7
2016-12-22T00:20:01.318Z,-2.7
2016-12-22T00:20:19.994Z,-2.7
2016-12-22T00:20:38.634Z,-2.7
2016-12-22T00:20:57.291Z,-2.7
2016-12-22T00:21:15.932Z,-2.7
2016-12-22T00:21:34.573Z,-2.7
2016-12-22T00:21:53.212Z,-2.7
2016-12-22T00:22:11.849Z,-2.8
2016-12-22T00:22:30.487Z,-2.8
2016-12-22T00:22:49.132Z,-2.8
2016-12-22T00:23:07.778Z,-2.8
2016-12-22T00:23:26.423Z,-2.7
2016-12-22T00:23:45.087Z,-2.8
2016-12-22T00:24:03.733Z,-2.8
2016-12-22T00:24:22.374Z,-2.8
2016-12-22T00:24:41.019Z,-2.8
2016-12-22T00:24:59.664Z,-2.8
2016-12-22T00:25:18.347Z,-2.8
2016-12-22T00:25:36.991Z,-2.8
2016-12-22T00:25:55.631Z,-2.7
2016-12-22T00:26:14.290Z,-2.7
2016-12-22T00:26:32.928Z,-2.7
2016-12-22T00:26:51.573Z,-2.7
2016-12-22T00:27:10.215Z,-2.7
2016-12-22T00:27:28.853Z,-2.7
2016-12-22T00:27:47.497Z,-2.6
2016-12-22T00:28:06.141Z,-2.6
2016-12-22T00:28:24.804Z,-2.6
2016-12-22T00:28:43.442Z,-2.5
2016-12-22T00:29:02.082Z,-2.4
2016-12-22T00:29:20.726Z,-2.4
2016-12-22T00:29:39.372Z,-2.4
2016-12-22T00:29:58.015Z,-2.3
2016-12-22T00:30:16.656Z,-2.3
2016-12-22T00:30:35.295Z,-2.3
2016-12-22T00:30:53.940Z,-2.3
2016-12-22T00:31:12.593Z,-2.3
2016-12-22T00:31:31.255Z,-2.2
2016-12-22T00:31:49.928Z,-2.2
2016-12-22T00:32:08.596Z,-2.3
2016-12-22T00:32:27.245Z,-2.2
2016-12-22T00:32:45.884Z,-2.2
2016-12-22T00:33:04.530Z,-2.2
2016-12-22T00:33:23.176Z,-2.2
2016-12-22T00:33:41.838Z,-2.2
2016-12-22T00:34:00.483Z,-2.2
2016-12-22T00:34:19.124Z,-2.2
2016-12-22T00:34:37.766Z,-2.2
2016-12-22T00:34:56.406Z,-2.2
2016-12-22T00:35:15.074Z,-2.1
2016-12-22T00:35:33.716Z,-2.1
2016-12-22T00:35:52.356Z,-2.1
2016-12-22T00:36:10.994Z,-2.1
2016-12-22T00:36:29.628Z,-2.1
2016-12-22T00:36:48.310Z,-2.1
2016-12-22T00:37:06.962Z,-2.1
2016-12-22T00:37:25.628Z,-2.1
2016-12-22T00:37:44.277Z,-2.1
2016-12-22T00:38:02.923Z,-2.1
2016-12-22T00:38:21.564Z,-2.2
2016-12-22T00:38:40.206Z,-2.2
2016-12-22T00:38:58.841Z,-2.2
2016-12-22T00:39:17.477Z,-2.2
2016-12-22T00:39:36.123Z,-2.3
2016-12-22T00:39:54.781Z,-2.3
2016-12-22T00:40:13.422Z,-2.3
2016-12-22T00:40:32.058Z,-2.3
2016-12-22T00:40:50.692Z,-2.3
2016-12-22T00:41:09.332Z,-2.3
2016-12-22T00:41:27.975Z,-2.3
2016-12-22T00:41:46.613Z,-2.3
2016-12-22T00:42:05.262Z,-2.3
2016-12-22T00:42:23.905Z,-2.3
2016-12-22T00:42:42.552Z,-2.3
2016-12-22T00:43:01.197Z,-2.3
2016-12-22T00:43:19.864Z,-2.3
2016-12-22T00:43:38.507Z,-2.3
2016-12-22T00:43:57.142Z,-2.3
2016-12-22T00:44:15.783Z,-2.3
2016-12-22T00:44:34.425Z,-2.3
2016-12-22T00:44:53.067Z,-2.3
2016-12-22T00:45:11.701Z,-2.4
2016-12-22T00:45:30.339Z,-2.4
2016-12-22T00:45:48.977Z,-2.4
2016-12-22T00:46:07.619Z,-2.4
2016-12-22T00:46:26.262Z,-2.4
2016-12-22T00:46:44.932Z,-2.4
2016-12-22T00:47:03.571Z,-2.5
2016-12-22T00:47:22.218Z,-2.5
2016-12-22T00:47:40.863Z,-2.5
2016-12-22T00:47:59.498Z,-2.5
2016-12-22T00:48:18.140Z,-2.5
2016-12-22T00:48:36.778Z,-2.6
2016-12-22T00:48:55.430Z,-2.6
2016-12-22T00:49:14.075Z,-2.6
2016-12-22T00:49:32.717Z,-2.6
2016-12-22T00:49:51.368Z,-2.6
2016-12-22T00:50:10.027Z,-2.6
2016-12-22T00:50:28.668Z,-2.6
2016-12-22T00:50:47.305Z,-2.6
2016-12-22T00:51:05.948Z,-2.6
2016-12-22T00:51:24.596Z,-2.6
2016-12-22T00:51:43.269Z,-2.6
2016-12-22T00:52:01.910Z,-2.6
2016-12-22T00:52:20.545Z,-2.6
2016-12-22T00:52:39.189Z,-2.6
2016-12-22T00:52:57.829Z,-2.6
2016-12-22T00:53:16.468Z,-2.6
2016-12-22T00:53:35.117Z,-2.6
2016-12-22T00:53:53.761Z,-2.6
2016-12-22T00:54:12.400Z,-2.6
2016-12-22T00:54:31.043Z,-2.5
2016-12-22T00:54:49.707Z,-2.4
2016-12-22T00:55:08.351Z,-2.4
2016-12-22T00:55:26.990Z,-2.3
2016-12-22T00:55:45.635Z,-2.2
2016-12-22T00:56:04.278Z,-2.2
2016-12-22T00:56:22.921Z,-2.1
2016-12-22T00:56:41.565Z,-2.1
2016-12-22T00:57:00.209Z,-2.1
2016-12-22T00:57:18.849Z,-2.1
2016-12-22T00:57:37.489Z,-2.1
2016-12-22T00:57:56.162Z,-2.1
2016-12-22T00:58:14.853Z,-2.2
2016-12-22T00:58:33.489Z,-2.2
2016-12-22T00:58:52.131Z,-2.2
2016-12-22T00:59:10.776Z,-2.2
2016-12-22T00:59:29.416Z,-2.2
2016-12-22T00:59:48.057Z,-2.2
2016-12-22T01:00:06.709Z,-2.1
2016-12-22T01:00:25.358Z,-2.1
2016-12-22T01:00:44.000Z,-2.1
2016-12-22T01:01:02.637Z,-2.1
2016-12-22T01:01:21.281Z,-2.1
2016-12-22T01:01:39.961Z,-2.1
2016-12-22T01:01:58.600Z,-2.1
2016-12-22T01:02:17.247Z,-2
2016-12-22T01:02:35.891Z,-2
2016-12-22T01:02:54.533Z,-2
2016-12-22T01:03:13.220Z,-2
2016-12-22T01:03:31.858Z,-2
2016-12-22T01:03:50.499Z,-2
2016-12-22T01:04:09.144Z,-2
2016-12-22T01:04:27.781Z,-2
2016-12-22T01:04:46.418Z,-2.1
2016-12-22T01:05:05.055Z,-2.1
2016-12-22T01:05:23.698Z,-2.2
2016-12-22T01:05:42.340Z,-2.2
2016-12-22T01:06:00.984Z,-2.2
2016-12-22T01:06:19.645Z,-2.2
2016-12-22T01:06:38.299Z,-2.3
2016-12-22T01:06:56.933Z,-2.3
2016-12-22T01:07:15.575Z,-2.3
2016-12-22T01:07:34.224Z,-2.3
2016-12-22T01:07:52.869Z,-2.3
2016-12-22T01:08:11.518Z,-2.3
2016-12-22T01:08:30.181Z,-2.2
2016-12-22T01:08:48.826Z,-2.2
2016-12-22T01:09:07.466Z,-2.2
2016-12-22T01:09:26.114Z,-2.2
2016-12-22T01:09:44.787Z,-2.2
2016-12-22T01:10:03.433Z,-2.2
2016-12-22T01:10:22.073Z,-2.2
2016-12-22T01:10:40.716Z,-2.2
2016-12-22T01:10:59.356Z,-2.2
2016-12-22T01:11:17.996Z,-2.2
2016-12-22T01:11:36.633Z,-2.1
2016-12-22T01:11:55.278Z,-2.1
2016-12-22T01:12:13.917Z,-2.1
2016-12-22T01:12:32.556Z,-2.1
2016-12-22T01:12:51.196Z,-2.1
2016-12-22T01:13:09.908Z,-2.1
2016-12-22T01:13:28.548Z,-2.1
2016-12-22T01:13:47.210Z,-2.1
2016-12-22T01:14:05.853Z,-2.1
2016-12-22T01:14:24.494Z,-2.1
2016-12-22T01:14:43.183Z,-2.1
2016-12-22T01:15:01.824Z,-2.1
2016-12-22T01:15:20.464Z,-2.2
2016-12-22T01:15:39.116Z,-2.2
2016-12-22T01:15:57.768Z,-2.2
2016-12-22T01:16:16.406Z,-2.2
2016-12-22T01:16:35.047Z,-2.2
2016-12-22T01:16:53.684Z,-2.3
2016-12-22T01:17:12.320Z,-2.3
2016-12-22T01:17:30.968Z,-2.2
2016-12-22T01:17:49.639Z,-2.2
2016-12-22T01:18:08.283Z,-2.2
2016-12-22T01:18:26.924Z,-2.1
2016-12-22T01:18:45.579Z,-2.1
2016-12-22T01:19:04.228Z,-2
2016-12-22T01:19:22.903Z,-2
2016-12-22T01:19:41.538Z,-2
2016-12-22T01:20:00.179Z,-2
2016-12-22T01:20:18.820Z,-2
2016-12-22T01:20:37.463Z,-2
2016-12-22T01:20:56.108Z,-2
2016-12-22T01:21:14.777Z,-2
2016-12-22T01:21:33.420Z,-2
2016-12-22T01:21:52.065Z,-2
2016-12-22T01:22:10.717Z,-1.9
2016-12-22T01:22:29.354Z,-1.9
2016-12-22T01:22:47.993Z,-1.9
2016-12-22T01:23:06.639Z,-1.9
2016-12-22T01:23:25.280Z,-1.9
2016-12-22T01:23:43.926Z,-1.8
2016-12-22T01:24:02.571Z,-1.8
2016-12-22T01:24:21.228Z,-1.8
2016-12-22T01:24:39.880Z,-1.8
2016-12-22T01:24:58.525Z,-1.8
2016-12-22T01:25:17.173Z,-1.8
2016-12-22T01:25:35.815Z,-1.8
2016-12-22T01:25:54.461Z,-1.7
2016-12-22T01:26:13.135Z,-1.7
2016-12-22T01:26:31.774Z,-1.7
2016-12-22T01:26:50.411Z,-1.7
2016-12-22T01:27:09.055Z,-1.6
2016-12-22T01:27:27.698Z,-1.6
2016-12-22T01:27:46.341Z,-1.6
2016-12-22T01:28:04.984Z,-1.6
2016-12-22T01:28:23.621Z,-1.6
2016-12-22T01:28:42.258Z,-1.6
2016-12-22T01:29:00.902Z,-1.5
2016-12-22T01:29:19.567Z,-1.5
2016-12-22T01:29:38.219Z,-1.5
2016-12-22T01:29:56.857Z,-1.5
2016-12-22T01:30:15.505Z,-1.5
2016-12-22T01:30:34.152Z,-1.5
2016-12-22T01:30:52.832Z,-1.5
2016-12-22T01:31:11.475Z,-1.4
2016-12-22T01:31:30.112Z,-1.4
2016-12-22T01:31:48.756Z,-1.4
2016-12-22T01:32:07.395Z,-1.5
2016-12-22T01:32:26.037Z,-1.4
2016-12-22T01:32:44.703Z,-1.5
2016-12-22T01:33:03.343Z,-1.4
2016-12-22T01:33:21.982Z,-1.4
2016-12-22T01:33:40.624Z,-1.4
2016-12-22T01:33:59.267Z,-1.4
2016-12-22T01:34:17.901Z,-1.4
2016-12-22T01:34:36.550Z,-1.3
2016-12-22T01:34:55.220Z,-1.3
2016-12-22T01:35:13.865Z,-1.2
2016-12-22T01:35:32.521Z,-1.2
2016-12-22T01:35:51.159Z,-1.2
2016-12-22T01:36:09.818Z,-1.2
2016-12-22T01:36:28.460Z,-1.2
2016-12-22T01:36:47.105Z,-1.2
2016-12-22T01:37:05.752Z,-1.2
2016-12-22T01:37:24.396Z,-1.2
2016-12-22T01:37:43.082Z,-1.2
2016-12-22T01:38:01.724Z,-1.2
2016-12-22T01:38:20.363Z,-1.2
2016-12-22T01:38:38.998Z,-1.2
2016-12-22T01:38:57.645Z,-1.2
2016-12-22T01:39:16.291Z,-1.2
2016-12-22T01:39:34.932Z,-1.2
2016-12-22T01:39:53.579Z,-1.3
2016-12-22T01:40:12.230Z,-1.3
2016-12-22T01:40:30.872Z,-1.2
2016-12-22T01:40:49.548Z,-1.2
2016-12-22T01:41:08.195Z,-1.2
2016-12-22T01:41:26.838Z,-1.2
2016-12-22T01:41:45.476Z,-1.2
2016-12-22T01:42:04.118Z,-1.3
2016-12-22T01:42:22.757Z,-1.2
2016-12-22T01:42:41.404Z,-1.2
2016-12-22T01:43:00.041Z,-1.2
2016-12-22T01:43:18.680Z,-1.2
2016-12-22T01:43:37.318Z,-1.2
2016-12-22T01:43:55.963Z,-1.2
2016-12-22T01:44:14.635Z,-1.2
2016-12-22T01:44:33.268Z,-1.3
2016-12-22T01:44:51.918Z,-1.2
2016-12-22T01:45:10.568Z,-1.2
2016-12-22T01:45:29.220Z,-1.2
2016-12-22T01:45:47.865Z,-1.2
2016-12-22T01:46:06.508Z,-1.2
2016-12-22T01:46:25.150Z,-1.2
2016-12-22T01:46:43.793Z,-1.2
2016-12-22T01:47:02.435Z,-1.2
2016-12-22T01:47:21.069Z,-1.3
2016-12-22T01:47:39.738Z,-1.2
2016-12-22T01:47:58.381Z,-1.2
2016-12-22T01:48:17.020Z,-1.2
2016-12-22T01:48:35.663Z,-1.2
2016-12-22T01:48:54.299Z,-1.2
2016-12-22T01:49:12.995Z,-1.3
2016-12-22T01:49:31.635Z,-1.2
2016-12-22T01:49:50.296Z,-1.2
2016-12-22T01:50:08.937Z,-1.2
2016-12-22T01:50:27.583Z,-1.2
2016-12-22T01:50:46.240Z,-1.1
2016-12-22T01:51:04.879Z,-1.1
2016-12-22T01:51:23.515Z,-1
2016-12-22T01:51:42.195Z,-1
2016-12-22T01:52:00.845Z,-1
2016-12-22T01:52:19.517Z,-1
2016-12-22T01:52:38.158Z,-1
2016-12-22T01:52:56.797Z,-1.1
2016-12-22T01:53:15.442Z,-1.1
2016-12-22T01:53:34.083Z,-1.1
2016-12-22T01:53:52.731Z,-1.1
2016-12-22T01:54:11.368Z,-1.1
2016-12-22T01:54:30.020Z,-1.1
2016-12-22T01:54:48.662Z,-1.1
2016-12-22T01:55:07.307Z,-1.1
2016-12-22T01:55:25.946Z,-1.1
2016-12-22T01:55:44.608Z,-1.1
2016-12-22T01:56:03.267Z,-1.1
2016-12-22T01:56:21.907Z,-1.1
2016-12-22T01:56:40.547Z,-1.1
2016-12-22T01:56:59.191Z,-1.1
2016-12-22T01:57:17.831Z,-1.1
2016-12-22T01:57:36.484Z,-1.1
2016-12-22T01:57:55.128Z,-1.1
2016-12-22T01:58:13.768Z,-1.1
2016-12-22T01:58:32.405Z,-1.1
2016-12-22T01:58:51.072Z,-1.1
2016-12-22T01:59:09.726Z,-1.1
2016-12-22T01:59:28.373Z,-1.1
2016-12-22T01:59:47.012Z,-1.1
2016-12-22T02:00:05.649Z,-1.1
2016-12-22T02:00:24.295Z,-1.1
2016-12-22T02:00:42.969Z,-1.1
2016-12-22T02:01:01.609Z,-1.1
2016-12-22T02:01:20.265Z,-1.1
2016-12-22T02:01:38.918Z,-1.1
2016-12-22T02:01:57.562Z,-1.1
2016-12-22T02:02:16.205Z,-1.1
2016-12-22T02:02:34.846Z,-1.2
2016-12-22T02:02:53.479Z,-1.2
2016-12-22T02:03:12.127Z,-1.2
2016-12-22T02:03:30.772Z,-1.2
2016-12-22T02:03:49.448Z,-1.2
2016-12-22T02:04:08.090Z,-1.2
2016-12-22T02:04:26.737Z,-1.2
2016-12-22T02:04:45.374Z,-1.2
2016-12-22T02:05:04.035Z,-1.2
2016-12-22T02:05:22.681Z,-1.2
2016-12-22T02:05:41.318Z,-1.2
2016-12-22T02:05:59.961Z,-1.2
2016-12-22T02:06:18.604Z,-1.2
2016-12-22T02:06:37.255Z,-1.2
2016-12-22T02:06:55.895Z,-1.2
2016-12-22T02:07:14.562Z,-1.2
2016-12-22T02:07:33.212Z,-1.3
2016-12-22T02:07:51.853Z,-1.3
2016-12-22T02:08:10.493Z,-1.3
2016-12-22T02:08:29.131Z,-1.3
2016-12-22T02:08:47.774Z,-1.3
2016-12-22T02:09:06.418Z,-1.3
2016-12-22T02:09:25.063Z,-1.2
2016-12-22T02:09:43.705Z,-1.2
2016-12-22T02:10:02.343Z,-1.2
2016-12-22T02:10:20.979Z,-1.2
2016-12-22T02:10:39.645Z,-1.2
2016-12-22T02:10:58.284Z,-1.2
2016-12-22T02:11:16.926Z,-1.2
2016-12-22T02:11:35.566Z,-1.2
2016-12-22T02:11:54.202Z,-1.2
2016-12-22T02:12:12.895Z,-1.2
2016-12-22T02:12:31.536Z,-1.2
2016-12-22T02:12:50.183Z,-1.2
2016-12-22T02:13:08.818Z,-1.2
2016-12-22T02:13:27.472Z,-1.2
2016-12-22T02:13:46.113Z,-1.2
2016-12-22T02:14:04.756Z,-1.2
2016-12-22T02:14:23.394Z,-1.2
2016-12-22T02:14:42.035Z,-1.3
2016-12-22T02:15:00.676Z,-1.2
2016-12-22T02:15:19.339Z,-1.2
2016-12-22T02:15:37.982Z,-1.3
2016-12-22T02:15:56.632Z,-1.3
2016-12-22T02:16:15.283Z,-1.3
2016-12-22T02:16:33.920Z,-1.3
2016-12-22T02:16:52.559Z,-1.2
2016-12-22T02:17:11.228Z,-1.2
2016-12-22T02:17:29.870Z,-1.2
2016-12-22T02:17:48.510Z,-1.2
2016-12-22T02:18:07.146Z,-1.2
2016-12-22T02:18:25.787Z,-1.2
2016-12-22T02:18:44.452Z,-1.2
2016-12-22T02:19:03.094Z,-1.2
2016-12-22T02:19:21.750Z,-1.2
2016-12-22T02:19:40.391Z,-1.2
2016-12-22T02:19:59.034Z,-1.2
2016-12-22T02:20:17.673Z,-1.2
2016-12-22T02:20:36.319Z,-1.2
2016-12-22T02:20:54.961Z,-1.2
2016-12-22T02:21:13.603Z,-1.2
2016-12-22T02:21:32.240Z,-1.2
2016-12-22T02:21:50.876Z,-1.2
2016-12-22T02:22:09.544Z,-1.2
2016-12-22T02:22:28.208Z,-1.2
2016-12-22T02:22:46.854Z,-1.2
2016-12-22T02:23:05.491Z,-1.2
2016-12-22T02:23:24.139Z,-1.2
2016-12-22T02:23:42.809Z,-1.2
2016-12-22T02:24:01.456Z,-1.2
2016-12-22T02:24:20.096Z,-1.2
2016-12-22T02:24:38.735Z,-1.2
2016-12-22T02:24:57.375Z,-1.2
2016-12-22T02:25:16.016Z,-1.2
2016-12-22T02:25:34.656Z,-1.2
2016-12-22T02:25:53.295Z,-1.2
2016-12-22T02:26:11.938Z,-1.2
2016-12-22T02:26:30.581Z,-1.2
2016-12-22T02:26:49.233Z,-1.2
2016-12-22T02:27:07.899Z,-1.2
2016-12-22T02:27:26.543Z,-1.2
2016-12-22T02:27:46.712Z,-1.2
2016-12-22T02:28:05.352Z,-1.2
2016-12-22T02:28:24.022Z,-1.2
2016-12-22T02:28:42.656Z,-1.2
2016-12-22T02:29:01.295Z,-1.2
2016-12-22T02:29:19.935Z,-1.2
2016-12-22T02:29:38.575Z,-1.2
2016-12-22T02:29:57.219Z,-1.3
2016-12-22T02:30:15.863Z,-1.3
2016-12-22T02:30:34.537Z,-1.3
2016-12-22T02:30:53.183Z,-1.3
2016-12-22T02:31:11.829Z,-1.3
2016-12-22T02:31:30.469Z,-1.3
2016-12-22T02:31:49.107Z,-1.2
2016-12-22T02:32:07.788Z,-1.2
2016-12-22T02:32:26.429Z,-1.2
2016-12-22T02:32:45.073Z,-1.2
2016-12-22T02:33:03.734Z,-1.2
2016-12-22T02:33:22.375Z,-1.2
2016-12-22T02:33:41.014Z,-1.2
2016-12-22T02:33:59.653Z,-1.2
2016-12-22T02:34:18.292Z,-1.2
2016-12-22T02:34:36.927Z,-1.3
2016-12-22T02:34:55.572Z,-1.3
2016-12-22T02:35:14.227Z,-1.3
2016-12-22T02:35:32.892Z,-1.3
2016-12-22T02:35:51.527Z,-1.3
2016-12-22T02:36:10.167Z,-1.3
2016-12-22T02:36:28.804Z,-1.3
2016-12-22T02:36:47.443Z,-1.3
2016-12-22T02:37:06.093Z,-1.4
2016-12-22T02:37:24.732Z,-1.4
2016-12-22T02:37:43.378Z,-1.4
2016-12-22T02:38:02.023Z,-1.4
2016-12-22T02:38:20.700Z,-1.4
2016-12-22T02:38:39.376Z,-1.5
2016-12-22T02:38:58.028Z,-1.5
2016-12-22T02:39:16.670Z,-1.5
2016-12-22T02:39:35.345Z,-1.5
2016-12-22T02:39:53.981Z,-1.6
2016-12-22T02:40:12.620Z,-1.5
2016-12-22T02:40:31.263Z,-1.6
2016-12-22T02:40:49.909Z,-1.6
2016-12-22T02:41:08.557Z,-1.6
2016-12-22T02:41:27.196Z,-1.6
2016-12-22T02:41:45.843Z,-1.6
2016-12-22T02:42:04.517Z,-1.6
2016-12-22T02:42:23.158Z,-1.6
2016-12-22T02:42:41.799Z,-1.6
2016-12-22T02:43:00.446Z,-1.6
2016-12-22T02:43:19.096Z,-1.7
2016-12-22T02:43:37.781Z,-1.6
2016-12-22T02:43:56.419Z,-1.6
2016-12-22T02:44:15.055Z,-1.6
2016-12-22T02:44:33.700Z,-1.6
2016-12-22T02:44:52.344Z,-1.6
2016-12-22T02:45:10.981Z,-1.6
2016-12-22T02:45:29.618Z,-1.6
2016-12-22T02:45:48.257Z,-1.6
2016-12-22T02:46:06.905Z,-1.6
2016-12-22T02:46:25.555Z,-1.6
2016-12-22T02:46:44.219Z,-1.6
2016-12-22T02:47:02.867Z,-1.6
2016-12-22T02:47:21.511Z,-1.6
2016-12-22T02:47:40.152Z,-1.5
2016-12-22T02:47:58.791Z,-1.5
2016-12-22T02:48:17.432Z,-1.5
2016-12-22T02:48:36.066Z,-1.5
2016-12-22T02:48:54.743Z,-1.5
2016-12-22T02:49:13.381Z,-1.5
2016-12-22T02:49:32.020Z,-1.5
2016-12-22T02:49:50.656Z,-1.5
2016-12-22T02:50:09.321Z,-1.6
2016-12-22T02:50:27.959Z,-1.6
2016-12-22T02:50:46.615Z,-1.6
2016-12-22T02:51:05.254Z,-1.6
2016-12-22T02:51:23.893Z,-1.6
2016-12-22T02:51:42.531Z,-1.6
2016-12-22T02:52:01.179Z,-1.7
2016-12-22T02:52:19.821Z,-1.7
2016-12-22T02:52:38.465Z,-1.7
2016-12-22T02:52:57.101Z,-1.7
2016-12-22T02:53:15.738Z,-1.7
2016-12-22T02:53:34.407Z,-1.7
2016-12-22T02:53:53.049Z,-1.8
2016-12-22T02:54:11.711Z,-1.8
2016-12-22T02:54:30.356Z,-1.8
2016-12-22T02:54:49.001Z,-1.8
2016-12-22T02:55:07.672Z,-1.8
2016-12-22T02:55:26.318Z,-1.8
2016-12-22T02:55:44.960Z,-1.8
2016-12-22T02:56:03.601Z,-1.8
2016-12-22T02:56:22.248Z,-1.8
2016-12-22T02:56:40.898Z,-1.9
2016-12-22T02:56:59.543Z,-1.9
2016-12-22T02:57:18.187Z,-1.9
2016-12-22T02:57:36.824Z,-1.9
2016-12-22T02:57:55.482Z,-1.9
2016-12-22T02:58:14.149Z,-1.8
2016-12-22T02:58:32.793Z,-1.8
2016-12-22T02:58:51.429Z,-1.8
2016-12-22T02:59:10.066Z,-1.7
2016-12-22T02:59:28.712Z,-1.7
2016-12-22T02:59:47.356Z,-1.7
2016-12-22T03:00:05.994Z,-1.6
2016-12-22T03:00:24.635Z,-1.6
2016-12-22T03:00:43.271Z,-1.6
2016-12-22T03:01:01.915Z,-1.6
2016-12-22T03:01:20.556Z,-1.6
2016-12-22T03:01:39.221Z,-1.6
2016-12-22T03:01:57.859Z,-1.6
2016-12-22T03:02:16.496Z,-1.6
2016-12-22T03:02:35.144Z,-1.6
2016-12-22T03:02:53.786Z,-1.6
2016-12-22T03:03:12.431Z,-1.6
2016-12-22T03:03:31.074Z,-1.6
2016-12-22T03:03:49.712Z,-1.5
2016-12-22T03:04:08.358Z,-1.5
2016-12-22T03:04:27.001Z,-1.5
2016-12-22T03:04:45.660Z,-1.5
2016-12-22T03:05:04.335Z,-1.5
2016-12-22T03:05:22.982Z,-1.5
2016-12-22T03:05:41.623Z,-1.5
2016-12-22T03:06:00.285Z,-1.5
2016-12-22T03:06:18.920Z,-1.5
2016-12-22T03:06:37.569Z,-1.5
2016-12-22T03:06:56.217Z,-1.5
2016-12-22T03:07:14.858Z,-1.5
2016-12-22T03:07:33.496Z,-1.5
2016-12-22T03:07:52.133Z,-1.5
2016-12-22T03:08:10.776Z,-1.5
2016-12-22T03:08:29.430Z,-1.5
2016-12-22T03:08:48.074Z,-1.5
2016-12-22T03:09:06.709Z,-1.6
2016-12-22T03:09:25.355Z,-1.6
2016-12-22T03:09:43.999Z,-1.6
2016-12-22T03:10:02.684Z,-1.6
2016-12-22T03:10:21.321Z,-1.6
2016-12-22T03:10:39.958Z,-1.6
2016-12-22T03:10:58.600Z,-1.6
2016-12-22T03:11:17.242Z,-1.7
2016-12-22T03:11:35.889Z,-1.7
2016-12-22T03:11:54.533Z,-1.6
2016-12-22T03:12:13.168Z,-1.7
2016-12-22T03:12:31.823Z,-1.6
2016-12-22T03:12:50.471Z,-1.7
2016-12-22T03:13:09.145Z,-1.7
2016-12-22T03:13:27.787Z,-1.7
2016-12-22T03:13:46.427Z,-1.7
2016-12-22T03:14:05.080Z,-1.7
2016-12-22T03:14:23.720Z,-1.6
2016-12-22T03:14:42.361Z,-1.6
2016-12-22T03:15:01.000Z,-1.6
2016-12-22T03:15:19.677Z,-1.6
2016-12-22T03:15:38.315Z,-1.6
2016-12-22T03:15:56.955Z,-1.6
2016-12-22T03:16:15.595Z,-1.6
2016-12-22T03:16:34.265Z,-1.6
2016-12-22T03:16:52.907Z,-1.6
2016-12-22T03:17:11.565Z,-1.6
2016-12-22T03:17:30.207Z,-1.5
2016-12-22T03:17:48.846Z,-1.5
2016-12-22T03:18:07.493Z,-1.5
2016-12-22T03:18:26.135Z,-1.5
2016-12-22T03:18:44.777Z,-1.6
2016-12-22T03:19:03.424Z,-1.6
2016-12-22T03:19:22.067Z,-1.6
2016-12-22T03:19:40.710Z,-1.6
2016-12-22T03:19:59.366Z,-1.7
2016-12-22T03:20:18.006Z,-1.6
2016-12-22T03:20:36.698Z,-1.6
2016-12-22T03:20:55.343Z,-1.6
2016-12-22T03:21:14.001Z,-1.6
2016-12-22T03:21:32.666Z,-1.6
2016-12-22T03:21:51.303Z,-1.6
2016-12-22T03:22:09.937Z,-1.6
2016-12-22T03:22:28.578Z,-1.6
2016-12-22T03:22:47.219Z,-1.6
2016-12-22T03:23:05.859Z,-1.6
2016-12-22T03:23:24.495Z,-1.6
2016-12-22T03:23:43.138Z,-1.6
2016-12-22T03:24:01.779Z,-1.6
2016-12-22T03:24:20.428Z,-1.6
2016-12-22T03:24:39.096Z,-1.6
2016-12-22T03:24:57.740Z,-1.6
2016-12-22T03:25:16.381Z,-1.6
2016-12-22T03:25:35.025Z,-1.7
2016-12-22T03:25:53.688Z,-1.7
2016-12-22T03:26:12.328Z,-1.6
2016-12-22T03:26:30.975Z,-1.6
2016-12-22T03:26:49.619Z,-1.6
2016-12-22T03:27:08.261Z,-1.5
2016-12-22T03:27:26.901Z,-1.5
2016-12-22T03:27:45.543Z,-1.5
2016-12-22T03:28:04.219Z,-1.5
2016-12-22T03:28:22.859Z,-1.5
2016-12-22T03:28:41.501Z,-1.5
2016-12-22T03:29:00.138Z,-1.5
2016-12-22T03:29:18.806Z,-1.5
2016-12-22T03:29:37.443Z,-1.5
2016-12-22T03:29:56.082Z,-1.5
2016-12-22T03:30:14.722Z,-1.6
2016-12-22T03:30:33.355Z,-1.6
2016-12-22T03:30:51.996Z,-1.6
2016-12-22T03:31:10.652Z,-1.5
2016-12-22T03:31:29.320Z,-1.5
2016-12-22T03:31:47.956Z,-1.5
2016-12-22T03:32:06.594Z,-1.5
2016-12-22T03:32:25.248Z,-1.5
2016-12-22T03:32:43.894Z,-1.5
2016-12-22T03:33:02.564Z,-1.5
2016-12-22T03:33:21.203Z,-1.5
2016-12-22T03:33:39.846Z,-1.6
2016-12-22T03:33:58.487Z,-1.6
2016-12-22T03:34:17.127Z,-1.6
2016-12-22T03:34:35.766Z,-1.6
2016-12-22T03:34:54.407Z,-1.6
2016-12-22T03:35:13.060Z,-1.6
2016-12-22T03:35:31.731Z,-1.6
2016-12-22T03:35:50.377Z,-1.6
2016-12-22T03:36:09.037Z,-1.6
2016-12-22T03:36:27.707Z,-1.7
2016-12-22T03:36:46.353Z,-1.7
2016-12-22T03:37:04.993Z,-1.7
2016-12-22T03:37:23.627Z,-1.7
2016-12-22T03:37:42.263Z,-1.7
2016-12-22T03:38:00.907Z,-1.7
2016-12-22T03:38:19.544Z,-1.8
2016-12-22T03:38:38.196Z,-1.8
2016-12-22T03:38:56.839Z,-1.8
2016-12-22T03:39:15.478Z,-1.9
2016-12-22T03:39:34.150Z,-1.9
2016-12-22T03:39:52.791Z,-1.9
2016-12-22T03:40:11.433Z,-2
2016-12-22T03:40:30.071Z,-2
2016-12-22T03:40:48.707Z,-2
2016-12-22T03:41:07.356Z,-2
2016-12-22T03:41:25.995Z,-2
2016-12-22T03:41:44.663Z,-2
2016-12-22T03:42:03.302Z,-2
2016-12-22T03:42:21.943Z,-2
2016-12-22T03:42:40.596Z,-2.1
2016-12-22T03:42:59.259Z,-2.1
2016-12-22T03:43:17.905Z,-2
2016-12-22T03:43:36.548Z,-2
2016-12-22T03:43:55.193Z,-2
2016-12-22T03:44:13.833Z,-1.9
2016-12-22T03:44:32.507Z,-1.9
2016-12-22T03:44:51.153Z,-1.9
2016-12-22T03:45:09.792Z,-1.8
2016-12-22T03:45:28.432Z,-1.8
2016-12-22T03:45:47.074Z,-1.8
2016-12-22T03:46:05.714Z,-1.8
2016-12-22T03:46:24.361Z,-1.8
2016-12-22T03:46:43.006Z,-1.8
2016-12-22T03:47:01.658Z,-1.8
2016-12-22T03:47:20.299Z,-1.9
2016-12-22T03:47:38.962Z,-1.8
2016-12-22T03:47:57.605Z,-1.8
2016-12-22T03:48:16.251Z,-1.9
2016-12-22T03:48:34.891Z,-1.8
2016-12-22T03:48:53.535Z,-1.9
2016-12-22T03:49:12.172Z,-1.9
2016-12-22T03:49:30.815Z,-1.9
2016-12-22T03:49:49.464Z,-1.9
2016-12-22T03:50:08.106Z,-1.9
2016-12-22T03:50:26.747Z,-2
2016-12-22T03:50:45.386Z,-2
2016-12-22T03:51:04.056Z,-2
2016-12-22T03:51:22.699Z,-1.9
2016-12-22T03:51:41.360Z,-1.9
2016-12-22T03:52:00.004Z,-1.9
2016-12-22T03:52:18.649Z,-1.9
2016-12-22T03:52:37.295Z,-1.9
2016-12-22T03:52:55.935Z,-1.9
2016-12-22T03:53:14.575Z,-1.9
2016-12-22T03:53:33.219Z,-1.9
2016-12-22T03:53:51.862Z,-1.9
2016-12-22T03:54:10.509Z,-1.9
2016-12-22T03:54:29.180Z,-1.9
2016-12-22T03:54:47.831Z,-1.9
2016-12-22T03:55:06.476Z,-1.9
2016-12-22T03:55:25.114Z,-1.9
2016-12-22T03:55:43.751Z,-1.8
2016-12-22T03:56:02.436Z,-1.8
2016-12-22T03:56:21.080Z,-1.8
2016-12-22T03:56:39.719Z,-1.8
2016-12-22T03:56:58.366Z,-1.8
2016-12-22T03:57:17.017Z,-1.9
2016-12-22T03:57:35.680Z,-1.9
2016-12-22T03:57:54.321Z,-1.9
2016-12-22T03:58:12.963Z,-1.9
2016-12-22T03:58:31.607Z,-1.9
2016-12-22T03:58:50.248Z,-1.9
2016-12-22T03:59:08.908Z,-1.9
2016-12-22T03:59:27.547Z,-1.9
2016-12-22T03:59:46.194Z,-1.9
2016-12-22T04:00:04.836Z,-1.8
2016-12-22T04:00:23.476Z,-1.8
2016-12-22T04:00:42.139Z,-1.9
2016-12-22T04:01:00.779Z,-1.8
2016-12-22T04:01:19.426Z,-1.9
2016-12-22T04:01:38.070Z,-1.9
2016-12-22T04:01:56.712Z,-1.8
2016-12-22T04:02:15.355Z,-1.9
2016-12-22T04:02:34.023Z,-1.9
2016-12-22T04:02:52.698Z,-1.9
2016-12-22T04:03:11.342Z,-1.9
2016-12-22T04:03:29.983Z,-1.9
2016-12-22T04:03:48.620Z,-1.9
2016-12-22T04:04:07.270Z,-1.9
2016-12-22T04:04:25.918Z,-1.9
2016-12-22T04:04:44.560Z,-1.9
2016-12-22T04:05:03.197Z,-1.9
2016-12-22T04:05:21.834Z,-1.9
2016-12-22T04:05:40.482Z,-1.9
2016-12-22T04:05:59.148Z,-1.9
2016-12-22T04:06:17.790Z,-1.8
2016-12-22T04:06:36.428Z,-1.9
2016-12-22T04:06:55.092Z,-1.8
2016-12-22T04:07:13.733Z,-1.8
2016-12-22T04:07:32.403Z,-1.8
2016-12-22T04:07:51.051Z,-1.8
2016-12-22T04:08:09.705Z,-1.8
2016-12-22T04:08:28.342Z,-1.8
2016-12-22T04:08:46.982Z,-1.7
2016-12-22T04:09:05.624Z,-1.7